Anton, Texas
Current Conditions -  °F | °C
As of 2:53 AM on Wednesday 26 Nov 2014 (Local Time) from KLBB Reporting Station
Clear Clear  
Wind Chill: 34°   Ceiling: Unl
Heat Index: 41°   Visibility: 10mi
Dew Point: 15°   Wind: 12mph
Humidity: 35%   Direction: 280°W
Pressure: 30.05"   Gusts: NA
Location:  33.81°N, 102.16°W
Report Text: KLBB 260853Z 28010KT 10SM CLR 05/M09 A3005 RMK AO2 SLP160 T00501094 53005
Loading
Personal Weather Stations






























Interactive Weather Map New forecast layout! Learn more

10-Day Weather Forecast

Advertisements
Track Severe Weather on mobile